createdAt,value
2024-05-09T00:00:15.784Z,507.00
2024-05-09T00:01:00.325Z,507.00
2024-05-09T00:01:49.419Z,508.00
2024-05-09T00:02:39.469Z,508.00
2024-05-09T00:03:29.609Z,510.00
2024-05-09T00:04:19.550Z,507.00
2024-05-09T00:05:09.695Z,508.00
2024-05-09T00:05:59.749Z,511.00
2024-05-09T00:06:49.663Z,512.00
2024-05-09T00:07:39.698Z,517.00
2024-05-09T00:08:29.968Z,517.00
2024-05-09T00:09:19.843Z,520.00
2024-05-09T00:10:17.854Z,517.00
2024-05-09T00:11:01.032Z,517.00
2024-05-09T00:11:50.073Z,518.00
2024-05-09T00:12:40.050Z,518.00
2024-05-09T00:13:30.127Z,520.00
2024-05-09T00:14:20.197Z,520.00
2024-05-09T00:15:10.196Z,522.00
2024-05-09T00:16:00.227Z,522.00
2024-05-09T00:16:50.308Z,523.00
2024-05-09T00:17:40.850Z,518.00
2024-05-09T00:18:30.639Z,518.00
2024-05-09T00:19:20.656Z,519.00
2024-05-09T00:20:17.582Z,519.00
2024-05-09T00:21:01.719Z,518.00
2024-05-09T00:21:50.633Z,520.00
2024-05-09T00:22:40.683Z,522.00
2024-05-09T00:23:30.767Z,524.00
2024-05-09T00:24:20.836Z,529.00
2024-05-09T00:25:11.080Z,532.00
2024-05-09T00:26:01.067Z,527.00
2024-05-09T00:26:50.996Z,526.00
2024-05-09T00:27:41.045Z,534.00
2024-05-09T00:28:31.104Z,526.00
2024-05-09T00:29:21.247Z,528.00
2024-05-09T00:30:17.477Z,529.00
2024-05-09T00:31:01.214Z,529.00
2024-05-09T00:31:51.338Z,530.00
2024-05-09T00:32:41.482Z,529.00
2024-05-09T00:33:31.528Z,526.00
2024-05-09T00:34:21.634Z,531.00
2024-05-09T00:35:11.533Z,530.00
2024-05-09T00:36:01.539Z,527.00
2024-05-09T00:36:51.591Z,528.00
2024-05-09T00:37:41.622Z,535.00
2024-05-09T00:38:31.887Z,532.00
2024-05-09T00:39:21.710Z,530.00
2024-05-09T00:40:18.712Z,531.00
2024-05-09T00:41:02.847Z,531.00
2024-05-09T00:41:51.859Z,532.00
2024-05-09T00:42:41.922Z,533.00
2024-05-09T00:43:32.030Z,537.00
2024-05-09T00:44:22.132Z,539.00
2024-05-09T00:45:12.135Z,546.00
2024-05-09T00:46:02.297Z,539.00
2024-05-09T00:46:52.390Z,547.00
2024-05-09T00:47:42.587Z,545.00
2024-05-09T00:48:32.638Z,549.00
2024-05-09T00:49:22.672Z,553.00
2024-05-09T00:50:15.869Z,554.00
2024-05-09T00:51:02.688Z,554.00
2024-05-09T00:51:52.701Z,554.00
2024-05-09T00:52:42.803Z,554.00
2024-05-09T00:53:32.916Z,557.00
2024-05-09T00:54:22.824Z,556.00
2024-05-09T00:55:12.909Z,557.00
2024-05-09T00:56:03.017Z,556.00
2024-05-09T00:56:53.018Z,553.00
2024-05-09T00:57:43.051Z,545.00
2024-05-09T00:58:33.119Z,554.00
2024-05-09T00:59:23.183Z,551.00
2024-05-09T01:00:22.584Z,553.00
2024-05-09T01:01:04.386Z,554.00
2024-05-09T01:01:53.447Z,554.00
2024-05-09T01:02:43.540Z,555.00
2024-05-09T01:03:33.681Z,552.00
2024-05-09T01:04:23.519Z,556.00
2024-05-09T01:05:13.685Z,550.00
2024-05-09T01:06:03.700Z,552.00
2024-05-09T01:06:53.666Z,542.00
2024-05-09T01:07:43.710Z,548.00
2024-05-09T01:08:33.978Z,543.00
2024-05-09T01:09:23.815Z,545.00
2024-05-09T01:10:20.924Z,541.00
2024-05-09T01:11:05.000Z,542.00
2024-05-09T01:11:53.989Z,542.00
2024-05-09T01:12:44.018Z,542.00
2024-05-09T01:13:34.073Z,543.00
2024-05-09T01:14:24.173Z,537.00
2024-05-09T01:15:14.177Z,543.00
2024-05-09T01:16:04.225Z,544.00
2024-05-09T01:16:54.313Z,541.00
2024-05-09T01:17:44.486Z,542.00
2024-05-09T01:18:34.429Z,539.00
2024-05-09T01:19:24.591Z,534.00
2024-05-09T01:20:20.182Z,540.00
2024-05-09T01:21:05.588Z,540.00
2024-05-09T01:21:54.618Z,540.00
2024-05-09T01:22:44.667Z,543.00
2024-05-09T01:23:34.872Z,542.00
2024-05-09T01:24:24.717Z,540.00
2024-05-09T01:25:14.781Z,536.00
2024-05-09T01:26:04.846Z,543.00
2024-05-09T01:26:54.855Z,545.00
2024-05-09T01:27:44.897Z,545.00
2024-05-09T01:28:35.009Z,538.00
2024-05-09T01:29:25.146Z,545.00
2024-05-09T01:30:20.970Z,535.00
2024-05-09T01:31:06.111Z,535.00
2024-05-09T01:31:55.212Z,536.00
2024-05-09T01:32:45.348Z,537.00
2024-05-09T01:33:35.411Z,536.00
2024-05-09T01:34:25.310Z,540.00
2024-05-09T01:35:15.403Z,535.00
2024-05-09T01:36:05.420Z,541.00
2024-05-09T01:36:55.735Z,534.00
2024-05-09T01:37:45.765Z,536.00
2024-05-09T01:38:35.884Z,539.00
2024-05-09T01:39:25.838Z,539.00
2024-05-09T01:40:21.973Z,530.00
2024-05-09T01:41:07.018Z,530.00
2024-05-09T01:41:56.056Z,531.00
2024-05-09T01:42:46.077Z,533.00
2024-05-09T01:43:36.180Z,532.00
2024-05-09T01:44:26.375Z,527.00
2024-05-09T01:45:16.297Z,527.00
2024-05-09T01:46:06.350Z,533.00
2024-05-09T01:46:56.477Z,531.00
2024-05-09T01:47:46.682Z,533.00
2024-05-09T01:48:36.742Z,533.00
2024-05-09T01:49:26.719Z,530.00
2024-05-09T01:50:18.954Z,525.00
2024-05-09T01:51:07.846Z,533.00
2024-05-09T01:51:56.794Z,533.00
2024-05-09T01:52:46.835Z,531.00
2024-05-09T01:53:36.896Z,533.00
2024-05-09T01:54:26.957Z,536.00
2024-05-09T01:55:17.035Z,527.00
2024-05-09T01:56:07.170Z,527.00
2024-05-09T01:56:57.132Z,533.00
2024-05-09T01:57:47.183Z,526.00
2024-05-09T01:58:37.266Z,527.00
2024-05-09T01:59:27.558Z,530.00
2024-05-09T02:00:26.225Z,527.00
2024-05-09T02:01:08.458Z,527.00
2024-05-09T02:01:58.027Z,527.00
2024-05-09T02:02:47.733Z,527.00
2024-05-09T02:03:37.802Z,527.00
2024-05-09T02:04:27.871Z,530.00
2024-05-09T02:05:17.987Z,527.00
2024-05-09T02:06:07.793Z,524.00
2024-05-09T02:06:57.801Z,531.00
2024-05-09T02:07:47.874Z,526.00
2024-05-09T02:08:38.022Z,526.00
2024-05-09T02:09:27.964Z,524.00
2024-05-09T02:10:23.514Z,529.00
2024-05-09T02:11:09.219Z,529.00
2024-05-09T02:11:58.294Z,530.00
2024-05-09T02:12:48.161Z,530.00
2024-05-09T02:13:38.234Z,529.00
2024-05-09T02:14:28.444Z,524.00
2024-05-09T02:15:18.362Z,525.00
2024-05-09T02:16:08.400Z,529.00
2024-05-09T02:16:58.516Z,519.00
2024-05-09T02:17:48.768Z,519.00
2024-05-09T02:18:38.758Z,524.00
2024-05-09T02:19:28.740Z,523.00
2024-05-09T02:20:27.376Z,524.00
2024-05-09T02:21:09.838Z,524.00
2024-05-09T02:21:58.832Z,524.00
2024-05-09T02:22:48.927Z,524.00
2024-05-09T02:23:38.970Z,524.00
2024-05-09T02:24:28.941Z,524.00
2024-05-09T02:25:19.015Z,524.00
2024-05-09T02:26:09.109Z,523.00
2024-05-09T02:26:59.335Z,529.00
2024-05-09T02:27:49.371Z,524.00
2024-05-09T02:28:39.488Z,529.00
2024-05-09T02:29:29.932Z,529.00
2024-05-09T02:30:29.884Z,532.00
2024-05-09T02:31:10.904Z,532.00
2024-05-09T02:32:00.088Z,533.00
2024-05-09T02:32:50.218Z,534.00
2024-05-09T02:33:40.235Z,537.00
2024-05-09T02:34:30.261Z,541.00
2024-05-09T02:35:20.317Z,542.00
2024-05-09T02:36:10.270Z,550.00
2024-05-09T02:37:00.517Z,547.00
2024-05-09T02:37:50.620Z,554.00
2024-05-09T02:38:40.666Z,550.00
2024-05-09T02:39:30.654Z,557.00
2024-05-09T02:40:25.753Z,554.00
2024-05-09T02:41:11.832Z,554.00
2024-05-09T02:42:00.843Z,555.00
2024-05-09T02:42:50.885Z,555.00
2024-05-09T02:43:40.985Z,559.00
2024-05-09T02:44:31.059Z,562.00
2024-05-09T02:45:21.089Z,567.00
2024-05-09T02:46:11.162Z,573.00
2024-05-09T02:47:01.359Z,569.00
2024-05-09T02:47:51.467Z,577.00
2024-05-09T02:48:41.495Z,579.00
2024-05-09T02:49:31.480Z,580.00
2024-05-09T02:50:29.764Z,583.00
2024-05-09T02:51:12.540Z,583.00
2024-05-09T02:52:01.568Z,584.00
2024-05-09T02:52:51.677Z,583.00
2024-05-09T02:53:41.730Z,586.00
2024-05-09T02:54:31.729Z,587.00
2024-05-09T02:55:21.800Z,579.00
2024-05-09T02:56:11.959Z,582.00
2024-05-09T02:57:02.013Z,585.00
2024-05-09T02:57:52.047Z,584.00
2024-05-09T02:58:42.119Z,587.00
2024-05-09T02:59:32.182Z,579.00
2024-05-09T03:00:29.450Z,582.00
2024-05-09T03:01:13.341Z,582.00
2024-05-09T03:02:02.412Z,583.00
2024-05-09T03:02:52.622Z,583.00
2024-05-09T03:03:42.587Z,586.00
2024-05-09T03:04:32.600Z,589.00
2024-05-09T03:05:22.543Z,586.00
2024-05-09T03:06:12.569Z,583.00
2024-05-09T03:07:02.916Z,589.00
2024-05-09T03:07:52.993Z,589.00
2024-05-09T03:08:43.058Z,580.00
2024-05-09T03:09:33.015Z,582.00
2024-05-09T03:10:28.342Z,581.00
2024-05-09T03:11:14.253Z,582.00
2024-05-09T03:12:03.458Z,583.00
2024-05-09T03:12:53.265Z,585.00
2024-05-09T03:13:43.418Z,587.00
2024-05-09T03:14:33.397Z,589.00
2024-05-09T03:15:23.434Z,592.00
2024-05-09T03:16:13.480Z,596.00
2024-05-09T03:17:03.892Z,596.00
2024-05-09T03:17:53.943Z,595.00
2024-05-09T03:18:44.047Z,586.00
2024-05-09T03:19:33.983Z,589.00
2024-05-09T03:20:27.845Z,583.00
2024-05-09T03:21:15.051Z,584.00
2024-05-09T03:22:04.074Z,584.00
2024-05-09T03:22:56.935Z,585.00
2024-05-09T03:23:44.324Z,584.00
2024-05-09T03:24:34.211Z,584.00
2024-05-09T03:25:24.288Z,584.00
2024-05-09T03:26:14.326Z,584.00
2024-05-09T03:27:04.393Z,585.00
2024-05-09T03:27:54.420Z,586.00
2024-05-09T03:28:44.599Z,586.00
2024-05-09T03:29:34.830Z,587.00
2024-05-09T03:30:31.213Z,590.00
2024-05-09T03:31:15.858Z,590.00
2024-05-09T03:32:04.964Z,592.00
2024-05-09T03:32:55.052Z,594.00
2024-05-09T03:33:45.317Z,593.00
2024-05-09T03:34:35.043Z,594.00
2024-05-09T03:35:25.266Z,595.00
2024-05-09T03:36:15.147Z,596.00
2024-05-09T03:37:05.449Z,598.00
2024-05-09T03:37:55.523Z,593.00
2024-05-09T03:38:45.607Z,596.00
2024-05-09T03:39:35.582Z,596.00
2024-05-09T03:40:29.021Z,593.00
2024-05-09T03:41:16.758Z,593.00
2024-05-09T03:42:05.805Z,594.00
2024-05-09T03:42:55.796Z,595.00
2024-05-09T03:43:45.963Z,593.00
2024-05-09T03:44:35.991Z,598.00
2024-05-09T03:45:26.023Z,594.00
2024-05-09T03:46:16.015Z,598.00
2024-05-09T03:47:06.420Z,596.00
2024-05-09T03:47:56.629Z,587.00
2024-05-09T03:48:46.498Z,589.00
2024-05-09T03:49:36.538Z,592.00
2024-05-09T03:50:33.630Z,590.00
2024-05-09T03:51:17.633Z,590.00
2024-05-09T03:52:06.678Z,591.00
2024-05-09T03:52:56.709Z,592.00
2024-05-09T03:53:46.844Z,594.00
2024-05-09T03:54:36.841Z,595.00
2024-05-09T03:55:26.911Z,594.00
2024-05-09T03:56:16.980Z,591.00
2024-05-09T03:57:07.260Z,593.00
2024-05-09T03:57:57.276Z,590.00
2024-05-09T03:58:47.371Z,593.00
2024-05-09T03:59:37.404Z,595.00
2024-05-09T04:00:35.207Z,588.00
2024-05-09T04:01:18.470Z,589.00
2024-05-09T04:02:07.576Z,589.00
2024-05-09T04:02:57.623Z,590.00
2024-05-09T04:03:47.799Z,590.00
2024-05-09T04:04:37.737Z,590.00
2024-05-09T04:05:27.826Z,588.00
2024-05-09T04:06:17.781Z,589.00
2024-05-09T04:07:08.046Z,587.00
2024-05-09T04:07:58.251Z,588.00
2024-05-09T04:08:48.228Z,586.00
2024-05-09T04:09:38.184Z,590.00
2024-05-09T04:10:33.233Z,586.00
2024-05-09T04:11:19.427Z,586.00
2024-05-09T04:12:08.564Z,587.00
2024-05-09T04:12:58.455Z,588.00
2024-05-09T04:13:48.545Z,589.00
2024-05-09T04:14:38.564Z,602.00
2024-05-09T04:15:28.592Z,604.00
2024-05-09T04:16:18.631Z,608.00
2024-05-09T04:17:08.737Z,606.00
2024-05-09T04:17:58.968Z,603.00
2024-05-09T04:18:49.349Z,603.00
2024-05-09T04:19:38.840Z,593.00
2024-05-09T04:20:36.847Z,595.00
2024-05-09T04:21:19.984Z,595.00
2024-05-09T04:22:09.022Z,595.00
2024-05-09T04:22:59.138Z,592.00
2024-05-09T04:23:49.267Z,594.00
2024-05-09T04:24:39.160Z,592.00
2024-05-09T04:25:29.191Z,589.00
2024-05-09T04:26:19.306Z,578.00
2024-05-09T04:27:09.550Z,578.00
2024-05-09T04:27:59.578Z,569.00
2024-05-09T04:28:49.718Z,579.00
2024-05-09T04:29:39.733Z,570.00
2024-05-09T04:30:37.450Z,569.00
2024-05-09T04:31:20.808Z,569.00
2024-05-09T04:32:10.032Z,569.00
2024-05-09T04:33:00.026Z,571.00
2024-05-09T04:33:50.147Z,571.00
2024-05-09T04:34:40.107Z,564.00
2024-05-09T04:35:30.113Z,568.00
2024-05-09T04:36:20.111Z,563.00
2024-05-09T04:37:10.380Z,556.00
2024-05-09T04:38:00.558Z,563.00
2024-05-09T04:38:50.494Z,560.00
2024-05-09T04:39:40.521Z,562.00
2024-05-09T04:40:34.415Z,557.00
2024-05-09T04:41:21.720Z,558.00
2024-05-09T04:42:10.749Z,559.00
2024-05-09T04:43:00.752Z,558.00
2024-05-09T04:43:50.996Z,557.00
2024-05-09T04:44:40.903Z,561.00
2024-05-09T04:45:30.983Z,559.00
2024-05-09T04:46:21.012Z,553.00
2024-05-09T04:47:11.361Z,555.00
2024-05-09T04:48:02.062Z,548.00
2024-05-09T04:48:51.419Z,549.00
2024-05-09T04:49:41.448Z,544.00
2024-05-09T04:50:36.706Z,542.00
2024-05-09T04:51:22.457Z,542.00
2024-05-09T04:52:11.509Z,542.00
2024-05-09T04:53:01.599Z,541.00
2024-05-09T04:53:51.678Z,542.00
2024-05-09T04:54:41.670Z,538.00
2024-05-09T04:55:31.802Z,536.00
2024-05-09T04:56:21.825Z,533.00
2024-05-09T04:57:11.984Z,532.00
2024-05-09T04:58:02.033Z,530.00
2024-05-09T04:58:52.125Z,539.00
2024-05-09T04:59:42.122Z,535.00
2024-05-09T05:00:36.594Z,538.00
2024-05-09T05:01:23.302Z,538.00
2024-05-09T05:02:12.427Z,539.00
2024-05-09T05:03:02.466Z,540.00
2024-05-09T05:03:53.019Z,545.00
2024-05-09T05:04:42.731Z,545.00
2024-05-09T05:05:32.592Z,544.00
2024-05-09T05:06:22.563Z,548.00
2024-05-09T05:07:12.873Z,550.00
2024-05-09T05:08:03.015Z,551.00
2024-05-09T05:08:52.995Z,550.00
2024-05-09T05:09:43.297Z,543.00
2024-05-09T05:10:36.347Z,549.00
2024-05-09T05:11:23.567Z,549.00
2024-05-09T05:12:13.801Z,550.00
2024-05-09T05:13:03.770Z,549.00
2024-05-09T05:13:53.865Z,549.00
2024-05-09T05:14:43.866Z,550.00
2024-05-09T05:15:33.941Z,550.00
2024-05-09T05:16:23.970Z,549.00
2024-05-09T05:17:14.119Z,547.00
2024-05-09T05:18:04.265Z,549.00
2024-05-09T05:18:54.175Z,543.00
2024-05-09T05:19:44.445Z,550.00
2024-05-09T05:20:34.544Z,547.00
2024-05-09T05:21:24.426Z,549.00
2024-05-09T05:22:14.383Z,550.00
2024-05-09T05:23:04.528Z,561.00
2024-05-09T05:23:54.525Z,561.00
2024-05-09T05:24:44.520Z,558.00
2024-05-09T05:25:34.661Z,556.00
2024-05-09T05:26:24.643Z,553.00
2024-05-09T05:27:14.705Z,542.00
2024-05-09T05:28:04.716Z,551.00
2024-05-09T05:28:54.949Z,542.00
2024-05-09T05:29:44.933Z,539.00
2024-05-09T05:30:35.309Z,543.00
2024-05-09T05:31:24.943Z,542.00
2024-05-09T05:32:15.384Z,533.00
2024-05-09T05:33:05.125Z,525.00
2024-05-09T05:33:55.138Z,530.00
2024-05-09T05:34:45.213Z,527.00
2024-05-09T05:35:35.396Z,522.00
2024-05-09T05:36:25.299Z,518.00
2024-05-09T05:37:15.384Z,521.00
2024-05-09T05:38:05.461Z,521.00
2024-05-09T05:38:55.592Z,517.00
2024-05-09T05:39:45.516Z,516.00
2024-05-09T05:40:37.775Z,516.00
2024-05-09T05:41:25.668Z,516.00
2024-05-09T05:42:15.721Z,512.00
2024-05-09T05:43:05.720Z,511.00
2024-05-09T05:43:55.925Z,509.00
2024-05-09T05:44:46.026Z,502.00
2024-05-09T05:45:36.127Z,501.00
2024-05-09T05:46:26.145Z,500.00
2024-05-09T05:47:16.409Z,507.00
2024-05-09T05:48:07.029Z,503.00
2024-05-09T05:48:56.552Z,507.00
2024-05-09T05:49:46.348Z,505.00
2024-05-09T05:50:38.255Z,501.00
2024-05-09T05:51:26.531Z,507.00
2024-05-09T05:52:16.507Z,498.00
2024-05-09T05:53:07.079Z,499.00
2024-05-09T05:53:56.682Z,499.00
2024-05-09T05:54:46.631Z,501.00
2024-05-09T05:55:36.835Z,501.00
2024-05-09T05:56:26.862Z,502.00
2024-05-09T05:57:16.954Z,561.00
2024-05-09T05:58:06.951Z,641.00
2024-05-09T05:58:57.069Z,643.00
2024-05-09T05:59:47.027Z,617.00
2024-05-09T06:00:39.346Z,596.00
2024-05-09T06:01:27.141Z,582.00
2024-05-09T06:02:17.590Z,571.00
2024-05-09T06:03:07.707Z,559.00
2024-05-09T06:03:57.671Z,548.00
2024-05-09T06:04:47.695Z,540.00
2024-05-09T06:05:37.760Z,532.00
2024-05-09T06:06:27.650Z,528.00
2024-05-09T06:07:17.743Z,516.00
2024-05-09T06:08:07.833Z,511.00
2024-05-09T06:08:58.205Z,517.00
2024-05-09T06:09:49.957Z,516.00
2024-05-09T06:10:40.909Z,516.00
2024-05-09T06:11:28.276Z,516.00
2024-05-09T06:12:18.641Z,513.00
2024-05-09T06:13:08.521Z,509.00
2024-05-09T06:13:58.701Z,507.00
2024-05-09T06:14:48.612Z,506.00
2024-05-09T06:15:38.794Z,506.00
2024-05-09T06:16:28.750Z,504.00
2024-05-09T06:17:19.004Z,508.00
2024-05-09T06:18:09.689Z,507.00
2024-05-09T06:18:59.193Z,503.00
2024-05-09T06:19:49.307Z,517.00
2024-05-09T06:20:39.186Z,517.00
2024-05-09T06:21:29.097Z,517.00
2024-05-09T06:22:19.179Z,511.00
2024-05-09T06:23:10.069Z,518.00
2024-05-09T06:23:59.375Z,516.00
2024-05-09T06:24:49.315Z,517.00
2024-05-09T06:25:39.477Z,516.00
2024-05-09T06:26:29.528Z,520.00
2024-05-09T06:27:19.521Z,516.00
2024-05-09T06:28:09.553Z,523.00
2024-05-09T06:28:59.760Z,516.00
2024-05-09T06:29:49.631Z,515.00
2024-05-09T06:30:41.746Z,508.00
2024-05-09T06:31:29.739Z,508.00
2024-05-09T06:32:20.068Z,509.00
2024-05-09T06:33:11.313Z,508.00
2024-05-09T06:34:00.123Z,508.00
2024-05-09T06:34:49.932Z,508.00
2024-05-09T06:35:40.588Z,509.00
2024-05-09T06:36:30.011Z,508.00
2024-05-09T06:37:20.113Z,514.00
2024-05-09T06:38:10.389Z,510.00
2024-05-09T06:39:00.305Z,514.00
2024-05-09T06:39:50.261Z,517.00
2024-05-09T06:40:42.101Z,520.00
2024-05-09T06:41:30.459Z,521.00
2024-05-09T06:42:20.443Z,521.00
2024-05-09T06:43:10.516Z,519.00
2024-05-09T06:44:00.672Z,516.00
2024-05-09T06:44:50.876Z,521.00
2024-05-09T06:45:41.143Z,513.00
2024-05-09T06:46:30.928Z,511.00
2024-05-09T06:47:21.146Z,509.00
2024-05-09T06:48:11.280Z,509.00
2024-05-09T06:49:01.376Z,508.00
2024-05-09T06:49:51.196Z,508.00
2024-05-09T06:50:41.435Z,513.00
2024-05-09T06:51:31.404Z,514.00
2024-05-09T06:52:21.445Z,510.00
2024-05-09T06:53:11.514Z,512.00
2024-05-09T06:54:01.648Z,525.00
2024-05-09T06:54:51.622Z,519.00
2024-05-09T06:55:41.743Z,523.00
2024-05-09T06:56:31.871Z,529.00
2024-05-09T06:57:21.788Z,530.00
2024-05-09T06:58:11.880Z,522.00
2024-05-09T06:59:02.023Z,532.00
2024-05-09T06:59:51.956Z,538.00
2024-05-09T07:00:42.540Z,540.00
2024-05-09T07:01:32.040Z,534.00
2024-05-09T07:02:22.704Z,528.00
2024-05-09T07:03:14.253Z,518.00
2024-05-09T07:04:02.716Z,519.00
2024-05-09T07:04:52.876Z,520.00
2024-05-09T07:05:42.968Z,520.00
2024-05-09T07:06:32.634Z,520.00
2024-05-09T07:07:22.789Z,518.00
2024-05-09T07:08:13.179Z,508.00
2024-05-09T07:09:03.076Z,514.00
2024-05-09T07:09:53.100Z,510.00
2024-05-09T07:10:43.250Z,517.00
2024-05-09T07:11:33.379Z,507.00
2024-05-09T07:12:23.438Z,505.00
2024-05-09T07:13:13.571Z,505.00
2024-05-09T07:14:03.466Z,508.00
2024-05-09T07:14:53.515Z,512.00
2024-05-09T07:15:43.652Z,518.00
2024-05-09T07:16:33.584Z,535.00
2024-05-09T07:17:23.841Z,546.00
2024-05-09T07:18:14.237Z,548.00
2024-05-09T07:19:04.120Z,544.00
2024-05-09T07:19:53.817Z,540.00
2024-05-09T07:20:43.970Z,530.00
2024-05-09T07:21:33.880Z,526.00
2024-05-09T07:22:24.016Z,532.00
2024-05-09T07:23:14.127Z,524.00
2024-05-09T07:24:04.103Z,527.00
2024-05-09T07:24:54.118Z,527.00
2024-05-09T07:25:44.215Z,522.00
2024-05-09T07:26:34.393Z,526.00
2024-05-09T07:27:24.369Z,527.00
2024-05-09T07:28:14.459Z,520.00
2024-05-09T07:29:04.584Z,516.00
2024-05-09T07:29:54.480Z,508.00
2024-05-09T07:30:44.724Z,510.00
2024-05-09T07:31:34.639Z,511.00
2024-05-09T07:32:24.972Z,517.00
2024-05-09T07:33:14.937Z,511.00
2024-05-09T07:34:04.927Z,510.00
2024-05-09T07:34:54.920Z,507.00
2024-05-09T07:35:45.025Z,505.00
2024-05-09T07:36:35.018Z,507.00
2024-05-09T07:37:25.048Z,527.00
2024-05-09T07:38:15.352Z,531.00
2024-05-09T07:39:05.443Z,533.00
2024-05-09T07:39:55.387Z,541.00
2024-05-09T07:40:45.664Z,577.00
2024-05-09T07:41:35.565Z,645.00
2024-05-09T07:42:25.591Z,727.00
2024-05-09T07:43:15.732Z,926.00
2024-05-09T07:44:05.887Z,861.00
2024-05-09T07:45:00.944Z,803.00
2024-05-09T07:45:52.484Z,750.00
2024-05-09T07:47:47.291Z,728.00
2024-05-09T07:49:45.422Z,666.00
2024-05-09T07:53:38.050Z,675.00
2024-05-09T07:54:07.780Z,674.00
2024-05-09T07:54:56.874Z,646.00
2024-05-09T07:55:46.859Z,636.00
2024-05-09T07:56:37.132Z,621.00
2024-05-09T07:57:26.895Z,605.00
2024-05-09T07:58:17.006Z,599.00
2024-05-09T07:59:06.966Z,601.00
2024-05-09T07:59:57.099Z,583.00
2024-05-09T08:00:47.207Z,580.00
2024-05-09T08:01:37.437Z,596.00
2024-05-09T08:02:27.341Z,590.00
2024-05-09T08:03:17.343Z,589.00
2024-05-09T08:04:07.673Z,592.00
2024-05-09T08:04:57.773Z,588.00
2024-05-09T08:05:47.684Z,580.00
2024-05-09T08:06:37.829Z,570.00
2024-05-09T08:07:27.714Z,559.00
2024-05-09T08:08:17.813Z,550.00
2024-05-09T08:09:11.046Z,538.00
2024-05-09T08:09:58.913Z,538.00
2024-05-09T08:10:48.071Z,539.00
2024-05-09T08:11:38.040Z,541.00
2024-05-09T08:12:28.233Z,538.00
2024-05-09T08:13:18.254Z,528.00
2024-05-09T08:14:08.215Z,518.00
2024-05-09T08:14:58.224Z,528.00
2024-05-09T08:15:48.655Z,539.00
2024-05-09T08:16:38.554Z,524.00
2024-05-09T08:17:28.741Z,514.00
2024-05-09T08:18:18.711Z,508.00
2024-05-09T08:19:08.927Z,522.00
2024-05-09T08:19:58.754Z,520.00
2024-05-09T08:20:48.852Z,533.00
2024-05-09T08:21:38.894Z,535.00
2024-05-09T08:22:29.065Z,549.00
2024-05-09T08:23:19.073Z,565.00
2024-05-09T08:24:09.264Z,553.00
2024-05-09T08:24:59.167Z,538.00
2024-05-09T08:25:49.254Z,540.00
2024-05-09T08:26:39.244Z,530.00
2024-05-09T08:27:29.434Z,525.00
2024-05-09T08:28:19.495Z,517.00
2024-05-09T08:29:09.448Z,506.00
2024-05-09T08:29:59.523Z,502.00
2024-05-09T08:30:49.806Z,502.00
2024-05-09T08:31:39.970Z,509.00
2024-05-09T08:32:30.093Z,509.00
2024-05-09T08:33:20.096Z,510.00
2024-05-09T08:34:10.197Z,507.00
2024-05-09T08:35:00.130Z,509.00
2024-05-09T08:35:50.148Z,517.00
2024-05-09T08:36:40.422Z,519.00
2024-05-09T08:37:35.015Z,531.00
2024-05-09T08:38:21.471Z,528.00
2024-05-09T08:39:10.650Z,526.00
2024-05-09T08:40:00.778Z,521.00
2024-05-09T08:40:50.915Z,517.00
2024-05-09T08:41:40.718Z,504.00
2024-05-09T08:42:30.889Z,509.00
2024-05-09T08:43:20.863Z,535.00
2024-05-09T08:44:10.888Z,555.00
2024-05-09T08:45:01.135Z,557.00
2024-05-09T08:45:51.310Z,563.00
2024-05-09T08:46:41.244Z,551.00
2024-05-09T08:47:31.514Z,547.00
2024-05-09T08:48:21.499Z,553.00
2024-05-09T08:49:11.564Z,566.00
2024-05-09T08:50:01.721Z,569.00
2024-05-09T08:50:51.684Z,569.00
2024-05-09T08:51:41.610Z,570.00
2024-05-09T08:52:31.731Z,566.00
2024-05-09T08:53:21.683Z,569.00
2024-05-09T08:54:11.775Z,561.00
2024-05-09T08:55:01.982Z,573.00
2024-05-09T08:55:52.084Z,595.00
2024-05-09T08:56:42.065Z,604.00
2024-05-09T08:57:32.280Z,621.00
2024-05-09T08:58:22.186Z,619.00
2024-05-09T08:59:12.222Z,617.00
2024-05-09T09:00:03.515Z,633.00
2024-05-09T09:00:52.503Z,645.00
2024-05-09T09:01:42.495Z,658.00
2024-05-09T09:02:32.655Z,664.00
2024-05-09T09:03:22.785Z,727.00
2024-05-09T09:04:12.972Z,698.00
2024-05-09T09:05:02.872Z,714.00
2024-05-09T09:05:53.081Z,737.00
2024-05-09T09:06:42.897Z,754.00
2024-05-09T09:07:33.035Z,753.00
2024-05-09T09:08:22.993Z,761.00
2024-05-09T09:09:13.116Z,744.00
2024-05-09T09:10:04.034Z,750.00
2024-05-09T09:10:53.226Z,753.00
2024-05-09T09:11:43.290Z,758.00
2024-05-09T09:12:33.345Z,700.00
2024-05-09T09:13:23.298Z,660.00
2024-05-09T09:14:13.359Z,648.00
2024-05-09T09:15:03.352Z,636.00
2024-05-09T09:15:53.792Z,621.00
2024-05-09T09:16:43.751Z,618.00
2024-05-09T09:17:34.008Z,600.00
2024-05-09T09:18:24.045Z,598.00
2024-05-09T09:19:14.195Z,611.00
2024-05-09T09:20:04.531Z,608.00
2024-05-09T09:20:54.056Z,591.00
2024-05-09T09:21:44.130Z,590.00
2024-05-09T09:22:34.404Z,604.00
2024-05-09T09:23:24.396Z,617.00
2024-05-09T09:24:14.561Z,628.00
2024-05-09T09:25:04.699Z,635.00
2024-05-09T09:25:54.599Z,646.00
2024-05-09T09:26:44.670Z,654.00
2024-05-09T09:27:34.767Z,662.00
2024-05-09T09:28:24.752Z,669.00
2024-05-09T09:29:14.895Z,652.00
2024-05-09T09:30:07.014Z,653.00
2024-05-09T09:30:55.990Z,654.00
2024-05-09T09:31:45.016Z,660.00
2024-05-09T09:32:35.174Z,686.00
2024-05-09T09:33:25.192Z,727.00
2024-05-09T09:34:15.505Z,780.00
2024-05-09T09:35:05.284Z,838.00
2024-05-09T09:35:55.283Z,822.00
2024-05-09T09:36:45.624Z,790.00
2024-05-09T09:37:35.646Z,744.00
2024-05-09T09:38:25.681Z,761.00
2024-05-09T09:39:15.786Z,762.00
2024-05-09T09:40:07.098Z,805.00
2024-05-09T09:40:55.987Z,807.00
2024-05-09T09:41:45.954Z,797.00
2024-05-09T09:42:36.209Z,804.00
2024-05-09T09:43:26.364Z,830.00
2024-05-09T09:44:16.370Z,811.00
2024-05-09T09:45:06.442Z,815.00
2024-05-09T09:45:56.533Z,827.00
2024-05-09T09:46:46.516Z,843.00
2024-05-09T09:47:36.834Z,872.00
2024-05-09T09:48:26.704Z,786.00
2024-05-09T09:49:17.056Z,818.00
2024-05-09T09:50:12.045Z,818.00
2024-05-09T09:50:57.963Z,818.00
2024-05-09T09:51:46.968Z,820.00
2024-05-09T09:52:37.078Z,822.00
2024-05-09T09:53:27.023Z,818.00
2024-05-09T09:54:17.129Z,825.00
2024-05-09T09:55:07.158Z,816.00
2024-05-09T09:55:57.274Z,829.00
2024-05-09T09:56:47.252Z,833.00
2024-05-09T09:57:37.329Z,834.00
2024-05-09T09:58:27.621Z,835.00
2024-05-09T09:59:17.478Z,837.00
2024-05-09T10:00:11.741Z,833.00
2024-05-09T10:00:57.687Z,834.00
2024-05-09T10:01:47.811Z,836.00
2024-05-09T10:02:37.800Z,840.00
2024-05-09T10:03:28.051Z,838.00
2024-05-09T10:04:18.080Z,834.00
2024-05-09T10:05:08.121Z,839.00
2024-05-09T10:05:58.086Z,861.00
2024-05-09T10:06:48.066Z,844.00
2024-05-09T10:07:38.115Z,885.00
2024-05-09T10:08:28.102Z,858.00
2024-05-09T10:09:18.267Z,859.00
2024-05-09T10:10:11.007Z,863.00
2024-05-09T10:10:59.440Z,861.00
2024-05-09T10:11:52.035Z,869.00
2024-05-09T10:12:38.542Z,859.00
2024-05-09T10:13:28.429Z,863.00
2024-05-09T10:14:18.520Z,858.00
2024-05-09T10:15:08.527Z,861.00
2024-05-09T10:15:58.703Z,885.00
2024-05-09T10:16:48.665Z,877.00
2024-05-09T10:17:38.933Z,898.00
2024-05-09T10:18:31.200Z,902.00
2024-05-09T10:19:19.060Z,885.00
2024-05-09T10:20:14.902Z,845.00
2024-05-09T10:20:59.953Z,845.00
2024-05-09T10:21:49.165Z,839.00
2024-05-09T10:22:39.042Z,832.00
2024-05-09T10:23:29.195Z,804.00
2024-05-09T10:24:19.142Z,779.00
2024-05-09T10:25:09.312Z,791.00
2024-05-09T10:25:59.245Z,721.00
2024-05-09T10:26:49.554Z,708.00
2024-05-09T10:27:39.639Z,706.00
2024-05-09T10:28:29.697Z,701.00
2024-05-09T10:29:19.716Z,690.00